Time;durP1;ratioP1;P1;durP2;ratioP2;P2;SDS_P1;SDS_P2;PMS_P1;PMS_P2;Temp;Humidity;BMP_temperature;BMP_pressure;BME280_temperature;BME280_humidity;BME280_pressure;Samples;Min_cycle;Max_cycle;Signal;HPM_P1;HPM_P2
2021/04/09 00:02:02;;;;;;;5.38;2.15;;;12.40;27.70;;;;;;6253438;28;20053;-78
2021/04/09 00:05:07;;;;;;;6.60;2.17;;;12.40;28.00;;;;;;6220634;28;20061;-79
2021/04/09 00:08:08;;;;;;;5.53;2.40;;;12.40;28.20;;;;;;6255532;28;20060;-78
2021/04/09 00:11:12;;;;;;;3.15;1.85;;;12.30;28.30;;;;;;6244697;28;20375;-79
2021/04/09 00:14:15;;;;;;;5.55;2.63;;;12.30;28.80;;;;;;6272942;28;20032;-79
2021/04/09 00:17:16;;;;;;;9.65;2.20;;;12.30;29.00;;;;;;6276959;28;20538;-77
2021/04/09 00:20:21;;;;;;;5.97;2.08;;;12.20;28.90;;;;;;6248751;28;20025;-77
2021/04/09 00:23:23;;;;;;;6.22;2.33;;;12.20;29.00;;;;;;6272109;28;20103;-77
2021/04/09 00:26:24;;;;;;;8.05;2.22;;;12.20;29.10;;;;;;6260767;28;20033;-77
2021/04/09 00:29:26;;;;;;;5.88;2.20;;;12.20;29.10;;;;;;6255714;28;20099;-77
2021/04/09 00:32:26;;;;;;;3.92;1.70;;;12.10;29.30;;;;;;6253380;28;20095;-76
2021/04/09 00:35:27;;;;;;;6.55;2.35;;;12.10;29.50;;;;;;6237125;28;20033;-80
2021/04/09 00:38:28;;;;;;;5.75;2.20;;;12.10;29.40;;;;;;6220526;28;20417;-77
2021/04/09 00:41:29;;;;;;;5.03;1.65;;;12.00;29.70;;;;;;6219163;28;20033;-78
2021/04/09 00:44:30;;;;;;;8.20;2.33;;;12.00;30.20;;;;;;6255595;28;20034;-77
2021/04/09 00:47:31;;;;;;;6.07;2.38;;;12.00;30.40;;;;;;6272173;28;20045;-76
2021/04/09 00:50:33;;;;;;;5.10;2.30;;;12.00;30.80;;;;;;6224679;28;20116;-78
2021/04/09 00:53:37;;;;;;;9.75;2.83;;;11.90;31.20;;;;;;6240965;28;20121;-78
2021/04/09 00:56:38;;;;;;;5.47;2.40;;;11.80;31.10;;;;;;6243690;28;20095;-78
2021/04/09 00:59:39;;;;;;;6.72;2.08;;;11.80;31.20;;;;;;6260603;28;20044;-77
2021/04/09 01:02:40;;;;;;;8.63;2.92;;;11.80;31.50;;;;;;6250729;28;20037;-77
2021/04/09 01:05:41;;;;;;;5.05;2.13;;;11.70;32.30;;;;;;6243312;28;20033;-77
2021/04/09 01:08:42;;;;;;;6.35;1.60;;;11.70;32.40;;;;;;6259432;28;20049;-77
2021/04/09 01:11:43;;;;;;;6.75;1.85;;;11.70;32.60;;;;;;6242853;28;20041;-77
2021/04/09 01:14:45;;;;;;;4.93;1.40;;;11.60;33.50;;;;;;6277512;28;20036;-77
2021/04/09 01:18:12;;;;;;;3.47;1.73;;;11.60;33.70;;;;;;6247527;28;20041;-77
2021/04/09 01:21:29;;;;;;;6.93;1.55;;;11.60;34.10;;;;;;6234336;28;20045;-77
2021/04/09 01:25:08;;;;;;;8.90;1.58;;;11.50;34.10;;;;;;6230120;28;20365;-77
2021/04/09 01:28:42;;;;;;;8.15;1.80;;;11.50;34.50;;;;;;6246845;28;20040;-77
2021/04/09 01:31:55;;;;;;;3.05;1.38;;;11.40;35.60;;;;;;6148370;28;20046;-78
2021/04/09 01:35:03;;;;;;;3.38;2.05;;;11.40;35.40;;;;;;6176812;28;20390;-77
2021/04/09 01:38:06;;;;;;;5.10;2.58;;;11.50;35.20;;;;;;6172091;28;20042;-77
2021/04/09 01:41:10;;;;;;;7.25;2.60;;;11.40;35.00;;;;;;6154023;28;20042;-77
2021/04/09 01:44:13;;;;;;;8.27;2.78;;;11.40;34.40;;;;;;6142459;28;20118;-77
2021/04/09 01:47:34;;;;;;;5.25;2.83;;;11.40;34.20;;;;;;6175450;28;20319;-76
2021/04/09 01:50:36;;;;;;;5.93;2.83;;;11.40;34.00;;;;;;6172307;28;20043;-76
2021/04/09 01:53:40;;;;;;;5.15;2.80;;;11.40;33.70;;;;;;6173762;28;20072;-76
2021/04/09 01:56:44;;;;;;;8.40;3.53;;;11.40;33.80;;;;;;6153589;28;20154;-77
2021/04/09 01:59:48;;;;;;;7.75;3.13;;;11.40;33.60;;;;;;6173786;28;20041;-77
2021/04/09 02:02:51;;;;;;;8.73;2.42;;;11.40;33.50;;;;;;6178339;28;20443;-77
2021/04/09 02:05:53;;;;;;;14.98;2.15;;;11.40;33.70;;;;;;6180508;28;20042;-77
2021/04/09 02:08:56;;;;;;;3.92;1.83;;;11.40;34.20;;;;;;6242152;28;20101;-77
2021/04/09 02:11:57;;;;;;;6.90;2.45;;;11.40;35.00;;;;;;6259279;28;20086;-77
2021/04/09 02:14:58;;;;;;;5.32;1.80;;;11.40;35.70;;;;;;6241376;28;20044;-77
2021/04/09 02:18:00;;;;;;;4.57;1.92;;;11.40;35.60;;;;;;6277327;28;20048;-77
2021/04/09 02:21:01;;;;;;;7.50;2.58;;;11.50;35.80;;;;;;6262748;28;20037;-77
2021/04/09 02:24:07;;;;;;;9.88;2.70;;;11.50;36.00;;;;;;6263168;28;20070;-77
2021/04/09 02:27:08;;;;;;;5.45;2.55;;;11.50;35.60;;;;;;6241416;28;20041;-77
2021/04/09 02:30:12;;;;;;;6.03;2.90;;;11.50;35.50;;;;;;6258478;28;20479;-77
2021/04/09 02:33:14;;;;;;;5.60;2.78;;;11.40;35.10;;;;;;6297901;28;20040;-77
2021/04/09 02:36:26;;;;;;;7.78;2.33;;;11.50;34.90;;;;;;6280570;28;20455;-77
2021/04/09 02:39:30;;;;;;;6.95;2.60;;;11.40;34.70;;;;;;6277148;28;20033;-76
2021/04/09 02:42:31;;;;;;;5.90;2.42;;;11.40;34.50;;;;;;6261282;28;20505;-76
2021/04/09 02:45:32;;;;;;;5.03;2.55;;;11.40;34.40;;;;;;6278079;28;20041;-76
2021/04/09 02:48:37;;;;;;;4.63;2.20;;;11.40;34.30;;;;;;6286121;28;20074;-76
2021/04/09 02:51:41;;;;;;;4.25;2.10;;;11.40;34.40;;;;;;6238828;28;20438;-76
2021/04/09 02:54:49;;;;;;;6.18;2.70;;;11.40;34.40;;;;;;6253870;28;20033;-77
2021/04/09 02:57:52;;;;;;;6.05;2.47;;;11.30;34.30;;;;;;6254569;28;20044;-76
2021/04/09 03:00:53;;;;;;;5.05;2.35;;;11.30;34.40;;;;;;6234366;28;20120;-76
2021/04/09 03:03:56;;;;;;;5.30;2.47;;;11.30;34.40;;;;;;6267068;28;20071;-76
2021/04/09 03:06:58;;;;;;;5.43;2.92;;;11.30;34.50;;;;;;6260743;28;20047;-77
2021/04/09 03:09:59;;;;;;;6.03;2.92;;;11.30;34.60;;;;;;6238251;28;20456;-77
2021/04/09 03:13:01;;;;;;;5.70;2.60;;;11.20;34.50;;;;;;6201980;28;20029;-76
2021/04/09 03:16:05;;;;;;;4.72;2.45;;;11.20;34.60;;;;;;6234586;28;20048;-77
2021/04/09 03:19:06;;;;;;;6.68;2.10;;;11.20;34.80;;;;;;6248280;28;20083;-77
2021/04/09 03:22:11;;;;;;;4.10;2.45;;;11.20;35.00;;;;;;6271039;28;20026;-76
2021/04/09 03:25:13;;;;;;;5.57;2.10;;;11.20;35.50;;;;;;6256592;28;20048;-77
2021/04/09 03:28:13;;;;;;;4.60;2.03;;;11.10;35.80;;;;;;6231681;28;20048;-77
2021/04/09 03:31:17;;;;;;;4.40;1.88;;;11.10;36.10;;;;;;6247919;28;20037;-77
2021/04/09 03:34:19;;;;;;;5.25;2.38;;;11.00;35.90;;;;;;6253029;28;20410;-77
2021/04/09 03:37:20;;;;;;;10.75;2.35;;;11.00;36.20;;;;;;6233207;28;20460;-77
2021/04/09 03:40:21;;;;;;;5.15;2.53;;;11.00;36.20;;;;;;6262688;28;20033;-76
2021/04/09 03:43:22;;;;;;;4.28;2.30;;;11.00;36.20;;;;;;6221071;28;20115;-77
2021/04/09 03:46:23;;;;;;;4.22;2.20;;;11.00;36.50;;;;;;6256283;28;20037;-77
2021/04/09 03:49:25;;;;;;;5.70;2.00;;;11.00;36.40;;;;;;6232219;28;20048;-77
2021/04/09 03:52:26;;;;;;;4.95;1.95;;;11.00;36.50;;;;;;6226987;28;20044;-77
2021/04/09 03:55:27;;;;;;;5.00;2.55;;;11.00;36.60;;;;;;6225992;28;20045;-77
2021/04/09 03:58:28;;;;;;;7.32;2.45;;;10.90;36.50;;;;;;6218429;28;20424;-77
2021/04/09 04:01:29;;;;;;;5.43;2.05;;;10.90;36.30;;;;;;6196922;28;20453;-77
2021/04/09 04:04:30;;;;;;;7.80;2.67;;;11.00;36.50;;;;;;6209073;28;20071;-77
2021/04/09 04:07:32;;;;;;;11.38;2.50;;;11.00;36.60;;;;;;6234751;28;21615;-77
2021/04/09 04:10:32;;;;;;;7.90;2.45;;;10.90;36.70;;;;;;6229458;28;20049;-77
2021/04/09 04:13:33;;;;;;;5.07;2.17;;;10.90;36.60;;;;;;6216499;28;20059;-77
2021/04/09 04:16:34;;;;;;;5.40;2.53;;;10.90;36.70;;;;;;6230293;28;20087;-77
2021/04/09 04:19:35;;;;;;;3.97;2.30;;;10.90;36.90;;;;;;6211298;28;20045;-77
2021/04/09 04:22:37;;;;;;;5.38;2.10;;;10.90;37.20;;;;;;6220845;28;20172;-79
2021/04/09 04:25:38;;;;;;;4.60;2.17;;;10.80;37.00;;;;;;6208366;28;20042;-78
2021/04/09 04:28:39;;;;;;;4.97;2.22;;;10.80;36.90;;;;;;6222946;28;20072;-77
2021/04/09 04:31:40;;;;;;;6.22;2.50;;;10.80;37.00;;;;;;6221665;28;20030;-77
2021/04/09 04:34:41;;;;;;;4.07;2.17;;;10.80;37.20;;;;;;6219358;28;20049;-76
2021/04/09 04:37:42;;;;;;;8.95;2.75;;;10.80;37.20;;;;;;6256155;28;20393;-77
2021/04/09 04:40:43;;;;;;;4.20;2.28;;;10.70;37.10;;;;;;6235584;28;20468;-77
2021/04/09 04:43:44;;;;;;;7.43;2.63;;;10.70;37.30;;;;;;6213254;28;20040;-77
2021/04/09 04:46:45;;;;;;;5.97;2.65;;;10.70;37.50;;;;;;6245020;28;20040;-77
2021/04/09 04:49:46;;;;;;;5.88;2.28;;;10.70;37.90;;;;;;6230225;28;20045;-77
2021/04/09 04:52:47;;;;;;;8.57;2.40;;;10.70;38.00;;;;;;6234630;28;20033;-78
2021/04/09 04:55:48;;;;;;;3.25;1.75;;;10.70;37.90;;;;;;6250416;28;20480;-77
2021/04/09 04:58:50;;;;;;;6.30;2.03;;;10.70;38.20;;;;;;6218621;28;20175;-78
2021/04/09 05:01:51;;;;;;;6.75;2.53;;;10.70;38.50;;;;;;6239163;28;20029;-78
2021/04/09 05:04:52;;;;;;;2.92;1.75;;;10.70;38.60;;;;;;6258241;28;20037;-77
2021/04/09 05:07:56;;;;;;;10.02;2.50;;;10.70;38.70;;;;;;6226915;28;20543;-77
2021/04/09 05:11:09;;;;;;;8.20;1.58;;;10.70;38.80;;;;;;6181732;28;20034;-77
2021/04/09 05:14:10;;;;;;;5.75;1.80;;;10.70;38.60;;;;;;6194001;28;20032;-77
2021/04/09 05:17:11;;;;;;;2.80;1.65;;;10.70;38.50;;;;;;6247197;28;20468;-77
2021/04/09 05:20:12;;;;;;;7.65;2.33;;;10.70;38.50;;;;;;6233298;28;20464;-77
2021/04/09 05:23:13;;;;;;;5.00;2.03;;;10.70;38.50;;;;;;6237067;28;20372;-77
2021/04/09 05:26:14;;;;;;;11.75;2.05;;;10.70;38.60;;;;;;6252971;28;20067;-77
2021/04/09 05:29:36;;;;;;;3.63;1.80;;;10.70;38.60;;;;;;6258916;28;20049;-77
2021/04/09 05:32:37;;;;;;;4.80;1.85;;;10.70;38.80;;;;;;6224605;28;20469;-77
2021/04/09 05:35:38;;;;;;;6.15;2.22;;;10.70;39.00;;;;;;6267514;28;20029;-76
2021/04/09 05:38:39;;;;;;;4.60;2.00;;;10.70;39.20;;;;;;6232168;28;20117;-76
2021/04/09 05:41:40;;;;;;;4.55;1.58;;;10.80;39.20;;;;;;6230913;28;20041;-76
2021/04/09 05:44:43;;;;;;;9.88;2.40;;;10.80;39.20;;;;;;6232624;28;20447;-76
2021/04/09 05:47:44;;;;;;;3.47;2.08;;;10.80;39.20;;;;;;6215819;28;20063;-77
2021/04/09 05:50:46;;;;;;;2.45;1.70;;;10.80;39.40;;;;;;6200384;28;20140;-77
2021/04/09 05:53:47;;;;;;;6.43;2.25;;;10.90;39.80;;;;;;6217667;28;20041;-77
2021/04/09 05:56:49;;;;;;;3.72;1.73;;;10.90;39.80;;;;;;6243283;28;20041;-79
2021/04/09 05:59:49;;;;;;;4.82;2.22;;;10.90;40.50;;;;;;6254237;28;20337;-76
2021/04/09 06:02:52;;;;;;;5.60;1.90;;;11.00;40.60;;;;;;6235642;28;20030;-77
2021/04/09 06:05:53;;;;;;;7.35;3.08;;;11.00;40.40;;;;;;6256148;28;20033;-78
2021/04/09 06:08:54;;;;;;;6.35;2.60;;;11.00;40.30;;;;;;6255289;28;20033;-76
2021/04/09 06:11:55;;;;;;;8.82;2.40;;;11.10;40.30;;;;;;6254775;28;20355;-76
2021/04/09 06:14:56;;;;;;;8.60;2.55;;;11.10;40.20;;;;;;6240451;28;20111;-77
2021/04/09 06:17:58;;;;;;;8.90;2.20;;;11.20;40.30;;;;;;6242178;28;20410;-76
2021/04/09 06:20:59;;;;;;;4.82;2.75;;;11.20;40.50;;;;;;6236843;28;20044;-78
2021/04/09 06:23:59;;;;;;;8.68;2.28;;;11.30;40.30;;;;;;6237719;28;20479;-78
2021/04/09 06:27:02;;;;;;;11.32;2.60;;;11.40;39.90;;;;;;6262251;28;20363;-78
2021/04/09 06:30:03;;;;;;;8.43;2.83;;;11.40;39.30;;;;;;6254869;28;20025;-77
2021/04/09 06:33:04;;;;;;;5.35;2.40;;;11.60;38.90;;;;;;6254936;28;20059;-77
2021/04/09 06:36:06;;;;;;;7.75;3.50;;;11.60;38.20;;;;;;6255452;28;20098;-78
2021/04/09 06:39:07;;;;;;;8.20;2.40;;;11.60;37.70;;;;;;6273072;28;20122;-78
2021/04/09 06:42:08;;;;;;;10.75;2.95;;;11.60;37.40;;;;;;6238567;28;20116;-78
2021/04/09 06:45:12;;;;;;;4.22;2.58;;;11.70;37.40;;;;;;6208114;28;20025;-77
2021/04/09 06:48:14;;;;;;;6.60;2.25;;;11.70;37.40;;;;;;6246853;28;20049;-77
2021/04/09 06:51:15;;;;;;;7.38;3.03;;;11.70;37.30;;;;;;6231024;28;20033;-78
2021/04/09 06:54:16;;;;;;;3.35;2.22;;;11.70;37.30;;;;;;6230553;28;20368;-80
2021/04/09 06:57:18;;;;;;;8.10;2.65;;;11.80;37.30;;;;;;6230991;28;20021;-78
2021/04/09 07:00:23;;;;;;;8.35;3.20;;;11.80;37.30;;;;;;6248591;28;20067;-77
2021/04/09 07:03:25;;;;;;;12.55;2.95;;;11.80;37.30;;;;;;6234848;28;20098;-79
2021/04/09 07:06:32;;;;;;;10.70;3.00;;;11.90;37.20;;;;;;6255043;28;20417;-76
2021/04/09 07:09:34;;;;;;;12.82;3.38;;;12.10;37.10;;;;;;6253783;28;20119;-77
2021/04/09 07:12:36;;;;;;;8.85;3.25;;;12.20;37.00;;;;;;6255413;28;20460;-77
2021/04/09 07:15:42;;;;;;;8.18;3.15;;;12.30;36.80;;;;;;6255189;28;20372;-78
2021/04/09 07:18:49;;;;;;;11.95;2.63;;;12.40;36.90;;;;;;6258342;28;20041;-78
2021/04/09 07:22:04;;;;;;;9.82;2.85;;;12.50;37.00;;;;;;6252199;28;20041;-78
2021/04/09 07:25:35;;;;;;;8.90;3.03;;;12.70;37.00;;;;;;6231967;28;20030;-77
2021/04/09 07:28:36;;;;;;;6.35;2.60;;;12.80;37.10;;;;;;6251755;28;20479;-78
2021/04/09 07:31:38;;;;;;;12.00;2.65;;;13.00;37.10;;;;;;6246270;28;20033;-77
2021/04/09 07:34:52;;;;;;;5.72;2.38;;;13.10;37.30;;;;;;6254930;28;20041;-78
2021/04/09 07:38:00;;;;;;;8.25;1.75;;;13.20;37.30;;;;;;6237433;28;20033;-77
2021/04/09 07:41:05;;;;;;;5.80;1.73;;;13.30;37.30;;;;;;6243500;28;20571;-77
2021/04/09 07:44:15;;;;;;;10.23;2.00;;;13.40;37.20;;;;;;6247092;28;20033;-76
2021/04/09 07:47:16;;;;;;;9.93;2.03;;;13.50;37.20;;;;;;6247087;28;20091;-77
2021/04/09 07:50:17;;;;;;;8.07;2.10;;;13.60;37.20;;;;;;6224817;28;20444;-77
2021/04/09 07:53:35;;;;;;;12.50;2.60;;;13.80;37.10;;;;;;6244805;28;20459;-79
2021/04/09 07:56:43;;;;;;;7.97;2.45;;;13.90;37.00;;;;;;6235257;28;20040;-78
2021/04/09 07:59:44;;;;;;;5.18;2.10;;;14.10;36.80;;;;;;6228394;28;20127;-78
2021/04/09 08:02:45;;;;;;;5.72;1.90;;;14.30;36.70;;;;;;6270606;28;20041;-78
2021/04/09 08:06:05;;;;;;;9.55;3.13;;;14.40;36.50;;;;;;6236614;28;20111;-78
2021/04/09 08:09:07;;;;;;;9.32;3.15;;;14.60;36.10;;;;;;6269427;28;20098;-79
2021/04/09 08:12:08;;;;;;;13.05;3.70;;;14.70;35.50;;;;;;6236168;28;20056;-78
2021/04/09 08:15:17;;;;;;;11.13;3.10;;;14.70;34.70;;;;;;6252318;28;20186;-77
2021/04/09 08:18:28;;;;;;;10.63;4.43;;;14.70;34.60;;;;;;6259077;28;20029;-78
2021/04/09 08:21:30;;;;;;;10.13;4.10;;;14.60;34.40;;;;;;6223164;28;20030;-79
2021/04/09 08:24:34;;;;;;;11.95;3.30;;;14.80;34.00;;;;;;6244765;28;20523;-77
2021/04/09 08:27:37;;;;;;;16.98;3.35;;;14.90;33.70;;;;;;6258126;28;20136;-78
2021/04/09 08:30:38;;;;;;;11.93;3.25;;;15.10;33.50;;;;;;6258360;28;20064;-78
2021/04/09 08:33:39;;;;;;;11.65;3.10;;;15.30;33.10;;;;;;6241326;28;20036;-78
2021/04/09 08:36:44;;;;;;;8.00;3.70;;;15.50;32.70;;;;;;6250470;28;20357;-79
2021/04/09 08:39:45;;;;;;;9.20;4.13;;;15.60;32.20;;;;;;6235278;28;20030;-77
2021/04/09 08:42:47;;;;;;;10.95;3.70;;;15.80;31.90;;;;;;6240256;28;20029;-77
2021/04/09 08:45:48;;;;;;;8.13;3.78;;;15.80;31.80;;;;;;6270929;28;20091;-78
2021/04/09 08:48:50;;;;;;;10.20;3.28;;;15.80;31.50;;;;;;6234123;28;20041;-78
2021/04/09 08:51:53;;;;;;;6.93;3.10;;;16.00;31.30;;;;;;6214886;28;20053;-79
2021/04/09 08:54:55;;;;;;;12.75;3.00;;;16.10;31.00;;;;;;6250917;28;20033;-77
2021/04/09 08:58:13;;;;;;;10.40;2.75;;;16.20;30.50;;;;;;6248621;28;20029;-77
2021/04/09 09:01:17;;;;;;;8.38;2.88;;;16.30;30.20;;;;;;6230486;28;20038;-77
2021/04/09 09:04:21;;;;;;;8.95;3.58;;;16.50;30.00;;;;;;6233822;28;20037;-77
2021/04/09 09:07:43;;;;;;;7.22;2.72;;;16.60;29.60;;;;;;6237644;28;20363;-79
2021/04/09 09:10:44;;;;;;;5.95;3.20;;;16.60;29.40;;;;;;6212562;28;20041;-77
2021/04/09 09:13:46;;;;;;;6.55;2.83;;;16.70;29.00;;;;;;6216671;28;20120;-78
2021/04/09 09:16:47;;;;;;;9.25;2.25;;;16.90;29.00;;;;;;6240767;28;20033;-77
2021/04/09 09:20:13;;;;;;;11.15;2.90;;;17.00;28.90;;;;;;6222856;28;20044;-77
2021/04/09 09:23:18;;;;;;;10.48;2.47;;;17.20;28.80;;;;;;6231363;28;20029;-77
2021/04/09 09:26:45;;;;;;;7.03;2.70;;;17.30;28.60;;;;;;6255878;28;20063;-76
2021/04/09 09:29:47;;;;;;;9.60;2.80;;;17.50;28.60;;;;;;6218281;28;20052;-77
2021/04/09 09:32:48;;;;;;;6.65;2.65;;;17.60;28.40;;;;;;6235763;28;20104;-77
2021/04/09 09:36:09;;;;;;;10.35;2.63;;;17.80;28.10;;;;;;6229836;28;20440;-77
2021/04/09 09:39:43;;;;;;;5.60;2.25;;;17.90;27.80;;;;;;6249579;28;20033;-78
2021/04/09 09:42:46;;;;;;;7.35;2.20;;;18.00;27.50;;;;;;6197749;28;20459;-78
2021/04/09 09:45:47;;;;;;;21.27;2.63;;;18.00;27.20;;;;;;6242968;28;20029;-77
2021/04/09 09:49:07;;;;;;;25.73;8.85;;;18.10;27.10;;;;;;6256377;28;20056;-77
2021/04/09 09:52:23;;;;;;;16.00;4.68;;;18.20;27.00;;;;;;6242607;28;20033;-77
2021/04/09 09:55:25;;;;;;;12.88;3.42;;;18.30;26.30;;;;;;6256418;28;20040;-77
2021/04/09 09:58:28;;;;;;;5.90;2.80;;;18.30;26.10;;;;;;6275708;28;20040;-76
2021/04/09 10:01:31;;;;;;;3.13;2.00;;;18.40;26.30;;;;;;6274815;28;20047;-78
2021/04/09 10:04:32;;;;;;;5.80;1.75;;;18.50;26.10;;;;;;6235448;28;20097;-76
2021/04/09 10:07:33;;;;;;;3.58;1.38;;;18.60;25.60;;;;;;6265633;28;20524;-78
2021/04/09 10:10:47;;;;;;;3.90;1.13;;;18.80;25.20;;;;;;6240839;28;20132;-78
2021/04/09 10:13:49;;;;;;;8.82;1.92;;;18.90;25.10;;;;;;6236710;28;20045;-77
2021/04/09 10:16:50;;;;;;;2.08;0.80;;;19.10;24.80;;;;;;6254249;28;20048;-77
2021/04/09 10:20:05;;;;;;;5.30;1.10;;;19.20;23.80;;;;;;6229737;28;20033;-78
2021/04/09 10:23:06;;;;;;;9.48;0.98;;;19.30;23.40;;;;;;6234274;28;20505;-78
2021/04/09 10:26:07;;;;;;;17.45;1.48;;;19.40;23.40;;;;;;6231592;28;20053;-77
2021/04/09 10:29:40;;;;;;;1.45;0.80;;;19.50;22.70;;;;;;6267228;28;20041;-78
2021/04/09 10:32:51;;;;;;;3.08;0.75;;;19.60;22.50;;;;;;6112486;29;20043;-78
2021/04/09 10:35:53;;;;;;;1.63;0.63;;;19.70;22.30;;;;;;6119819;29;20063;-79
2021/04/09 10:38:57;;;;;;;6.90;0.80;;;19.80;22.20;;;;;;6130082;29;20039;-79
2021/04/09 10:42:02;;;;;;;3.20;0.73;;;19.90;22.10;;;;;;6130816;28;20126;-78
2021/04/09 10:45:20;;;;;;;3.97;0.90;;;20.00;21.90;;;;;;6111454;29;20039;-79
2021/04/09 10:48:22;;;;;;;4.63;0.70;;;20.30;21.40;;;;;;6132327;29;20035;-79
2021/04/09 10:51:30;;;;;;;0.77;0.50;;;20.70;21.50;;;;;;6131582;29;20046;-77
2021/04/09 10:54:34;;;;;;;3.85;0.88;;;21.00;21.80;;;;;;6129311;29;20054;-77
2021/04/09 10:57:36;;;;;;;7.97;0.82;;;21.30;21.90;;;;;;6140770;29;20050;-77
2021/04/09 11:00:37;;;;;;;8.07;0.77;;;21.70;22.00;;;;;;6109302;29;22636;-76
2021/04/09 11:03:38;;;;;;;2.28;0.73;;;22.00;21.90;;;;;;6132377;29;20505;-77
2021/04/09 11:06:39;;;;;;;5.70;1.40;;;22.40;20.80;;;;;;6135079;28;20105;-77
2021/04/09 11:09:48;;;;;;;2.35;0.90;;;22.70;20.60;;;;;;6250440;28;20636;-77
2021/04/09 11:12:49;;;;;;;3.50;1.05;;;23.10;20.10;;;;;;6251123;28;20124;-78
2021/04/09 11:15:56;;;;;;;7.43;0.80;;;23.30;19.40;;;;;;6246722;28;20368;-78
2021/04/09 11:18:59;;;;;;;1.27;0.70;;;23.50;19.50;;;;;;6206623;28;20318;-78
2021/04/09 11:22:02;;;;;;;4.93;1.00;;;23.60;19.60;;;;;;6219108;28;20160;-78
2021/04/09 11:25:07;;;;;;;2.20;0.73;;;23.70;19.70;;;;;;6248538;28;20451;-78
2021/04/09 11:28:28;;;;;;;4.13;0.85;;;23.90;19.70;;;;;;6229885;28;20041;-78
2021/04/09 11:31:30;;;;;;;1.33;0.50;;;24.10;19.20;;;;;;6244883;28;20045;-78
2021/04/09 11:34:38;;;;;;;4.00;0.73;;;24.20;19.00;;;;;;6230205;28;20186;-79
2021/04/09 11:37:44;;;;;;;1.40;0.80;;;24.30;18.50;;;;;;6254409;28;20471;-77
2021/04/09 11:40:45;;;;;;;1.58;0.40;;;24.30;18.50;;;;;;6230983;28;20498;-78
2021/04/09 11:43:46;;;;;;;1.48;0.77;;;24.50;17.90;;;;;;6238600;28;20032;-77
2021/04/09 11:46:47;;;;;;;0.80;0.60;;;24.60;17.80;;;;;;6247120;28;20061;-79
2021/04/09 11:50:16;;;;;;;3.88;0.93;;;24.80;17.80;;;;;;6254033;28;20367;-79
2021/04/09 11:53:17;;;;;;;3.15;0.90;;;25.10;17.30;;;;;;6226587;28;20033;-78
2021/04/09 11:56:37;;;;;;;3.08;0.68;;;25.40;17.10;;;;;;6224423;28;20033;-80
2021/04/09 11:59:38;;;;;;;4.35;0.80;;;25.40;17.40;;;;;;6237384;28;20037;-78
2021/04/09 12:02:57;;;;;;;2.72;0.70;;;25.30;17.80;;;;;;6235282;28;20376;-80
2021/04/09 12:06:10;;;;;;;3.67;0.80;;;25.30;17.70;;;;;;6234451;28;20525;-78
2021/04/09 12:09:11;;;;;;;3.90;0.98;;;25.50;17.70;;;;;;6212231;28;20049;-77
2021/04/09 12:12:14;;;;;;;2.72;1.17;;;25.70;17.30;;;;;;6228371;28;20026;-77
2021/04/09 12:15:16;;;;;;;5.78;1.10;;;25.90;17.00;;;;;;6230178;28;20183;-77
2021/04/09 12:22:43;;;;;;;5.63;0.70;;;26.70;16.30;;;;;;6234582;28;20037;-77
2021/04/09 12:25:56;;;;;;;1.13;0.55;;;27.30;16.80;;;;;;6247190;28;20033;-77
2021/04/09 12:28:57;;;;;;;2.58;0.60;;;27.60;16.50;;;;;;6225558;28;20052;-78
2021/04/09 12:31:57;;;;;;;6.85;0.70;;;28.10;16.20;;;;;;6241814;28;20060;-77
2021/04/09 12:35:00;;;;;;;2.45;0.85;;;28.50;16.20;;;;;;6255802;28;20037;-77
2021/04/09 12:38:01;;;;;;;3.25;0.90;;;29.20;15.70;;;;;;6255784;28;20361;-77
2021/04/09 12:41:02;;;;;;;4.50;0.88;;;30.00;14.50;;;;;;6262959;28;20034;-79
2021/04/09 12:44:05;;;;;;;3.63;0.80;;;30.30;14.20;;;;;;6229381;28;20056;-79
2021/04/09 12:47:06;;;;;;;6.38;0.80;;;30.40;14.30;;;;;;6271273;28;20064;-77
2021/04/09 12:50:07;;;;;;;13.30;0.70;;;30.60;14.50;;;;;;6225235;28;20086;-77
2021/04/09 12:53:09;;;;;;;1.23;0.90;;;31.00;14.00;;;;;;6230214;28;20379;-80
2021/04/09 12:56:13;;;;;;;2.03;0.60;;;31.70;13.70;;;;;;6238002;28;20037;-77
2021/04/09 12:59:15;;;;;;;5.57;1.30;;;32.40;13.30;;;;;;6225706;28;20090;-78
2021/04/09 13:02:16;;;;;;;6.25;0.90;;;33.00;12.50;;;;;;6247721;28;20029;-78
2021/04/09 13:05:17;;;;;;;2.72;0.77;;;33.50;11.80;;;;;;6235156;28;20410;-78
2021/04/09 13:08:19;;;;;;;1.90;0.70;;;33.90;11.70;;;;;;6243275;28;20044;-77
2021/04/09 13:11:20;;;;;;;0.95;0.70;;;34.60;11.60;;;;;;6247506;28;20033;-77
2021/04/09 13:14:21;;;;;;;7.00;0.63;;;35.10;11.00;;;;;;6255136;28;20499;-77
2021/04/09 13:17:22;;;;;;;5.63;1.05;;;35.20;10.90;;;;;;6219303;28;20030;-78
2021/04/09 13:20:24;;;;;;;4.22;0.70;;;35.10;10.80;;;;;;6236330;28;20037;-77
2021/04/09 13:23:26;;;;;;;5.72;0.70;;;34.90;11.20;;;;;;6217309;28;20138;-80
2021/04/09 13:26:27;;;;;;;6.63;0.82;;;34.60;11.10;;;;;;6238608;28;20450;-78
2021/04/09 13:29:28;;;;;;;1.83;0.85;;;34.10;10.90;;;;;;6225732;28;20043;-77
2021/04/09 13:32:28;;;;;;;1.85;0.70;;;33.80;11.40;;;;;;6238071;28;20364;-78
2021/04/09 13:35:31;;;;;;;6.07;0.70;;;33.70;10.40;;;;;;6246225;28;20107;-78
2021/04/09 13:38:33;;;;;;;5.03;0.95;;;33.80;10.60;;;;;;6251335;28;20071;-78
2021/04/09 13:41:34;;;;;;;1.25;0.65;;;33.90;11.00;;;;;;6211267;28;20535;-78
2021/04/09 13:44:35;;;;;;;1.45;0.68;;;33.90;11.20;;;;;;6241788;28;20033;-78
2021/04/09 13:47:36;;;;;;;0.70;0.65;;;33.90;11.30;;;;;;6236779;28;20403;-78
2021/04/09 13:50:37;;;;;;;1.88;0.60;;;33.90;10.80;;;;;;6235009;28;20037;-78
2021/04/09 13:53:38;;;;;;;3.47;0.50;;;34.10;10.70;;;;;;6238738;28;20124;-77
2021/04/09 13:56:39;;;;;;;2.55;0.70;;;34.20;9.60;;;;;;6224525;28;20059;-78
2021/04/09 13:59:40;;;;;;;1.55;0.73;;;34.30;10.10;;;;;;6268302;28;20340;-78
2021/04/09 14:02:41;;;;;;;4.93;1.00;;;34.30;10.60;;;;;;6257100;28;20037;-77
2021/04/09 14:05:41;;;;;;;3.90;0.60;;;33.80;11.00;;;;;;6254092;28;20037;-78
2021/04/09 14:08:42;;;;;;;1.10;0.60;;;33.00;11.40;;;;;;6264084;28;20114;-78
2021/04/09 14:11:43;;;;;;;2.10;0.75;;;31.90;12.50;;;;;;6259650;28;20044;-77
2021/04/09 14:14:44;;;;;;;1.33;0.60;;;30.70;13.40;;;;;;6225684;28;20514;-77
2021/04/09 14:17:46;;;;;;;3.15;0.60;;;29.60;14.00;;;;;;6223467;28;20037;-78
2021/04/09 14:20:47;;;;;;;2.28;0.68;;;28.50;14.60;;;;;;6251197;28;20033;-78
2021/04/09 14:23:49;;;;;;;1.65;0.60;;;27.50;14.70;;;;;;6274716;28;20052;-77
2021/04/09 14:26:53;;;;;;;6.35;1.10;;;26.70;14.70;;;;;;6250502;28;20421;-78
2021/04/09 14:29:55;;;;;;;3.95;0.90;;;26.10;16.70;;;;;;6253664;28;20041;-78
2021/04/09 14:32:55;;;;;;;3.70;1.05;;;25.50;17.30;;;;;;6236998;28;20356;-78
2021/04/09 14:35:59;;;;;;;1.88;0.90;;;25.10;17.30;;;;;;6203558;28;20041;-79
2021/04/09 14:39:00;;;;;;;2.88;1.00;;;24.80;17.80;;;;;;6219187;28;20427;-79
2021/04/09 14:42:01;;;;;;;3.55;0.68;;;24.50;18.30;;;;;;6231275;28;20041;-78
2021/04/09 14:45:05;;;;;;;3.60;1.38;;;24.30;18.50;;;;;;6246312;28;20033;-77
2021/04/09 14:48:07;;;;;;;5.07;1.00;;;24.10;19.50;;;;;;6216231;28;20041;-77
2021/04/09 14:51:17;;;;;;;1.70;0.90;;;23.90;20.20;;;;;;6254835;28;20045;-77
2021/04/09 14:54:19;;;;;;;1.30;0.50;;;23.70;20.50;;;;;;6252348;28;20064;-77
2021/04/09 14:57:20;;;;;;;3.47;0.80;;;23.60;20.50;;;;;;6219022;28;20038;-79
2021/04/09 15:00:22;;;;;;;4.85;1.30;;;23.50;21.40;;;;;;6254110;28;20112;-78
2021/04/09 15:03:22;;;;;;;4.15;0.95;;;23.30;21.70;;;;;;6256385;28;20116;-77
2021/04/09 15:06:23;;;;;;;1.20;0.65;;;23.30;22.00;;;;;;6240053;28;20043;-77
2021/04/09 15:09:26;;;;;;;1.00;0.40;;;23.20;21.70;;;;;;6256457;28;20068;-78
2021/04/09 15:12:27;;;;;;;4.35;0.60;;;23.10;22.00;;;;;;6239911;28;20037;-77
2021/04/09 15:15:28;;;;;;;2.40;0.85;;;23.10;22.00;;;;;;6242654;28;20064;-77
2021/04/09 15:18:29;;;;;;;1.60;0.77;;;23.10;21.90;;;;;;6232138;28;20464;-77
2021/04/09 15:21:30;;;;;;;6.68;1.00;;;23.10;22.30;;;;;;6251273;28;20084;-77
2021/04/09 15:24:31;;;;;;;5.10;0.80;;;23.00;22.50;;;;;;6244071;28;20136;-77
2021/04/09 15:27:51;;;;;;;5.88;0.75;;;23.00;22.80;;;;;;6250778;28;20112;-77
2021/04/09 15:30:55;;;;;;;6.70;0.90;;;23.00;23.00;;;;;;6273284;28;20067;-77
2021/04/09 15:33:56;;;;;;;3.35;0.73;;;23.00;23.40;;;;;;6273344;28;20124;-78
2021/04/09 15:36:57;;;;;;;0.80;0.70;;;22.90;23.90;;;;;;6240356;28;20025;-77
2021/04/09 15:39:58;;;;;;;1.40;0.63;;;22.90;24.30;;;;;;6240025;28;20375;-78
2021/04/09 15:42:59;;;;;;;2.95;0.50;;;22.90;24.20;;;;;;6244779;28;20033;-78
2021/04/09 15:46:00;;;;;;;1.33;0.68;;;22.90;24.30;;;;;;6257699;28;20026;-78
2021/04/09 15:49:01;;;;;;;5.50;0.95;;;22.90;24.30;;;;;;6216224;28;20052;-77
2021/04/09 15:52:03;;;;;;;7.28;0.65;;;22.90;24.40;;;;;;6254366;28;20029;-76
2021/04/09 15:55:06;;;;;;;9.40;0.88;;;22.90;24.30;;;;;;6263716;28;20038;-77
2021/04/09 15:58:07;;;;;;;10.88;0.75;;;22.80;24.20;;;;;;6233391;28;20148;-77
2021/04/09 16:01:08;;;;;;;2.17;0.70;;;22.80;24.00;;;;;;6250023;28;20046;-78